sensor_id;sensor_type;location;lat;lon;timestamp;pressure;altitude;pressure_sealevel;temperature;humidity
25638;BME280;13496;51.040;13.680;2022-08-25T00:00:48;100181.88;;;23.00;56.58
25638;BME280;13496;51.040;13.680;2022-08-25T00:05:50;100175.97;;;22.78;57.13
25638;BME280;13496;51.040;13.680;2022-08-25T00:10:52;100173.53;;;22.63;57.59
25638;BME280;13496;51.040;13.680;2022-08-25T00:15:53;100173.53;;;22.63;57.28
25638;BME280;13496;51.040;13.680;2022-08-25T00:20:55;100175.94;;;22.58;57.55
25638;BME280;13496;51.040;13.680;2022-08-25T00:25:57;100178.38;;;22.79;56.99
25638;BME280;13496;51.040;13.680;2022-08-25T00:30:59;100174.94;;;22.79;56.93
25638;BME280;13496;51.040;13.680;2022-08-25T00:36:02;100170.47;;;22.92;56.26
25638;BME280;13496;51.040;13.680;2022-08-25T00:41:04;100167.81;;;22.92;56.38
25638;BME280;13496;51.040;13.680;2022-08-25T00:46:08;100170.25;;;22.61;57.33
25638;BME280;13496;51.040;13.680;2022-08-25T00:51:12;100162.94;;;22.63;57.26
25638;BME280;13496;51.040;13.680;2022-08-25T00:56:16;100162.94;;;22.69;56.83
25638;BME280;13496;51.040;13.680;2022-08-25T01:01:18;100158.06;;;22.73;56.72
25638;BME280;13496;51.040;13.680;2022-08-25T01:06:20;100152.38;;;22.50;57.46
25638;BME280;13496;51.040;13.680;2022-08-25T01:11:22;100151.34;;;22.64;57.04
25638;BME280;13496;51.040;13.680;2022-08-25T01:16:24;100152.75;;;22.46;57.43
25638;BME280;13496;51.040;13.680;2022-08-25T01:21:29;100156.84;;;22.49;57.48
25638;BME280;13496;51.040;13.680;2022-08-25T01:26:34;100151.97;;;22.59;56.97
25638;BME280;13496;51.040;13.680;2022-08-25T01:31:37;100154.56;;;22.73;56.54
25638;BME280;13496;51.040;13.680;2022-08-25T01:36:41;100155.78;;;22.77;56.38
25638;BME280;13496;51.040;13.680;2022-08-25T01:41:53;100148.88;;;22.76;56.27
25638;BME280;13496;51.040;13.680;2022-08-25T01:46:59;100152.78;;;22.66;56.54
25638;BME280;13496;51.040;13.680;2022-08-25T01:52:09;100145.84;;;22.45;56.87
25638;BME280;13496;51.040;13.680;2022-08-25T01:57:11;100153.59;;;22.34;57.18
25638;BME280;13496;51.040;13.680;2022-08-25T02:02:13;100151.97;;;22.53;56.64
25638;BME280;13496;51.040;13.680;2022-08-25T02:07:15;100143.41;;;22.57;56.64
25638;BME280;13496;51.040;13.680;2022-08-25T02:12:17;100144.25;;;22.51;56.81
25638;BME280;13496;51.040;13.680;2022-08-25T02:17:19;100152.78;;;22.40;57.42
25638;BME280;13496;51.040;13.680;2022-08-25T02:22:20;100146.25;;;22.36;57.38
25638;BME280;13496;51.040;13.680;2022-08-25T02:27:22;100139.94;;;22.50;56.69
25638;BME280;13496;51.040;13.680;2022-08-25T02:32:24;100142.41;;;22.58;56.66
25638;BME280;13496;51.040;13.680;2022-08-25T02:37:26;100136.91;;;22.46;56.97
25638;BME280;13496;51.040;13.680;2022-08-25T02:42:28;100136.50;;;22.50;57.14
25638;BME280;13496;51.040;13.680;2022-08-25T02:47:29;100142.00;;;22.55;56.91
25638;BME280;13496;51.040;13.680;2022-08-25T02:52:32;100140.34;;;22.47;57.13
25638;BME280;13496;51.040;13.680;2022-08-25T02:57:35;100139.75;;;22.58;56.64
25638;BME280;13496;51.040;13.680;2022-08-25T03:02:37;100136.09;;;22.53;56.87
25638;BME280;13496;51.040;13.680;2022-08-25T03:07:39;100132.41;;;22.47;56.99
25638;BME280;13496;51.040;13.680;2022-08-25T03:12:41;100130.41;;;22.56;56.44
25638;BME280;13496;51.040;13.680;2022-08-25T03:17:44;100124.09;;;22.50;56.72
25638;BME280;13496;51.040;13.680;2022-08-25T03:22:46;100114.75;;;22.14;57.58
25638;BME280;13496;51.040;13.680;2022-08-25T03:27:47;100118.19;;;22.35;57.34
25638;BME280;13496;51.040;13.680;2022-08-25T03:32:49;100126.13;;;22.41;56.93
25638;BME280;13496;51.040;13.680;2022-08-25T03:37:58;100118.59;;;22.45;56.52
25638;BME280;13496;51.040;13.680;2022-08-25T03:42:59;100123.28;;;22.50;56.39
25638;BME280;13496;51.040;13.680;2022-08-25T03:48:01;100112.50;;;22.51;56.51
25638;BME280;13496;51.040;13.680;2022-08-25T03:53:03;100116.38;;;22.49;56.22
25638;BME280;13496;51.040;13.680;2022-08-25T03:58:05;100127.13;;;22.47;56.41
25638;BME280;13496;51.040;13.680;2022-08-25T04:03:06;100113.75;;;22.29;57.13
25638;BME280;13496;51.040;13.680;2022-08-25T04:08:08;100112.91;;;22.35;57.04
25638;BME280;13496;51.040;13.680;2022-08-25T04:13:10;100114.13;;;22.45;56.19
25638;BME280;13496;51.040;13.680;2022-08-25T04:18:12;100115.78;;;22.40;56.73
25638;BME280;13496;51.040;13.680;2022-08-25T04:23:14;100113.72;;;22.42;56.54
25638;BME280;13496;51.040;13.680;2022-08-25T04:28:16;100112.28;;;22.39;56.61
25638;BME280;13496;51.040;13.680;2022-08-25T04:33:18;100120.84;;;22.35;57.02
25638;BME280;13496;51.040;13.680;2022-08-25T04:38:19;100112.09;;;22.28;57.17
25638;BME280;13496;51.040;13.680;2022-08-25T04:43:21;100111.28;;;22.27;57.14
25638;BME280;13496;51.040;13.680;2022-08-25T04:48:23;100115.13;;;22.25;57.25
25638;BME280;13496;51.040;13.680;2022-08-25T04:53:25;100112.91;;;22.35;57.03
25638;BME280;13496;51.040;13.680;2022-08-25T04:58:27;100115.78;;;22.40;56.65
25638;BME280;13496;51.040;13.680;2022-08-25T05:03:29;100113.53;;;22.43;56.69
25638;BME280;13496;51.040;13.680;2022-08-25T05:08:32;100123.69;;;22.46;56.39
25638;BME280;13496;51.040;13.680;2022-08-25T05:13:35;100123.28;;;22.50;56.39
25638;BME280;13496;51.040;13.680;2022-08-25T05:18:37;100132.41;;;22.47;56.75
25638;BME280;13496;51.040;13.680;2022-08-25T05:23:39;100130.41;;;22.49;56.71
25638;BME280;13496;51.040;13.680;2022-08-25T05:28:42;100128.16;;;22.46;56.97
25638;BME280;13496;51.040;13.680;2022-08-25T05:33:44;100137.94;;;22.52;57.09
25638;BME280;13496;51.040;13.680;2022-08-25T05:38:46;100127.09;;;21.94;59.01
25638;BME280;13496;51.040;13.680;2022-08-25T05:43:48;100135.28;;;22.26;58.22
25638;BME280;13496;51.040;13.680;2022-08-25T05:48:50;100127.75;;;22.36;58.01
25638;BME280;13496;51.040;13.680;2022-08-25T05:53:53;100125.31;;;22.28;58.32
25638;BME280;13496;51.040;13.680;2022-08-25T05:58:54;100123.28;;;22.30;58.50
25638;BME280;13496;51.040;13.680;2022-08-25T06:03:56;100122.66;;;22.28;58.37
25638;BME280;13496;51.040;13.680;2022-08-25T06:09:00;100119.63;;;22.31;58.68
25638;BME280;13496;51.040;13.680;2022-08-25T06:14:02;100114.34;;;22.24;58.94
25638;BME280;13496;51.040;13.680;2022-08-25T06:19:06;100117.56;;;22.46;57.95
25638;BME280;13496;51.040;13.680;2022-08-25T06:24:09;100125.09;;;22.36;58.75
25638;BME280;13496;51.040;13.680;2022-08-25T06:29:12;100122.19;;;21.78;60.67
25638;BME280;13496;51.040;13.680;2022-08-25T06:34:17;100127.94;;;22.28;58.88
25638;BME280;13496;51.040;13.680;2022-08-25T06:39:19;100120.84;;;22.35;58.99
25638;BME280;13496;51.040;13.680;2022-08-25T06:44:22;100119.63;;;22.31;59.26
25638;BME280;13496;51.040;13.680;2022-08-25T06:49:24;100119.63;;;22.24;59.54
25638;BME280;13496;51.040;13.680;2022-08-25T06:54:29;100122.47;;;22.49;58.49
25638;BME280;13496;51.040;13.680;2022-08-25T06:59:31;100118.19;;;22.55;58.81
25638;BME280;13496;51.040;13.680;2022-08-25T07:04:33;100114.72;;;22.54;58.93
25638;BME280;13496;51.040;13.680;2022-08-25T07:09:35;100107.81;;;22.66;58.57
25638;BME280;13496;51.040;13.680;2022-08-25T07:14:37;100115.94;;;22.65;58.99
25638;BME280;13496;51.040;13.680;2022-08-25T07:19:39;100113.09;;;22.53;59.73
25638;BME280;13496;51.040;13.680;2022-08-25T07:24:41;100099.69;;;22.55;59.95
25638;BME280;13496;51.040;13.680;2022-08-25T07:29:43;100108.41;;;22.68;59.05
25638;BME280;13496;51.040;13.680;2022-08-25T07:34:44;100109.19;;;22.76;59.24
25638;BME280;13496;51.040;13.680;2022-08-25T07:40:05;100103.28;;;22.87;58.69
25638;BME280;13496;51.040;13.680;2022-08-25T07:45:08;100114.66;;;22.87;59.21
25638;BME280;13496;51.040;13.680;2022-08-25T07:50:12;100101.84;;;22.91;59.03
25638;BME280;13496;51.040;13.680;2022-08-25T07:55:14;100102.84;;;22.90;59.01
25638;BME280;13496;51.040;13.680;2022-08-25T08:00:15;100108.56;;;23.00;58.86
25638;BME280;13496;51.040;13.680;2022-08-25T08:05:17;100102.66;;;22.91;59.41
25638;BME280;13496;51.040;13.680;2022-08-25T08:10:20;100098.97;;;23.06;58.97
25638;BME280;13496;51.040;13.680;2022-08-25T08:15:23;100099.38;;;23.09;58.86
25638;BME280;13496;51.040;13.680;2022-08-25T08:20:25;100101.00;;;23.10;59.00
25638;BME280;13496;51.040;13.680;2022-08-25T08:25:27;100096.06;;;23.21;58.86
25638;BME280;13496;51.040;13.680;2022-08-25T08:30:29;100096.84;;;23.28;59.04
25638;BME280;13496;51.040;13.680;2022-08-25T08:35:31;100088.50;;;23.31;58.08
25638;BME280;13496;51.040;13.680;2022-08-25T08:40:44;100085.44;;;23.34;57.85
25638;BME280;13496;51.040;13.680;2022-08-25T08:46:08;100074.00;;;23.40;57.64
25638;BME280;13496;51.040;13.680;2022-08-25T08:51:26;100065.41;;;23.45;57.57
25638;BME280;13496;51.040;13.680;2022-08-25T08:56:34;100071.69;;;23.50;58.01
25638;BME280;13496;51.040;13.680;2022-08-25T09:01:52;100071.25;;;23.53;57.68
25638;BME280;13496;51.040;13.680;2022-08-25T09:07:02;100060.84;;;23.58;57.56
25638;BME280;13496;51.040;13.680;2022-08-25T09:12:30;100059.16;;;23.71;58.21
25638;BME280;13496;51.040;13.680;2022-08-25T09:18:14;100058.94;;;23.72;59.17
25638;BME280;13496;51.040;13.680;2022-08-25T09:23:33;100050.53;;;23.82;58.48
25638;BME280;13496;51.040;13.680;2022-08-25T09:28:48;100046.66;;;23.84;57.22
25638;BME280;13496;51.040;13.680;2022-08-25T09:33:56;100030.91;;;23.89;57.21
25638;BME280;13496;51.040;13.680;2022-08-25T09:38:58;100030.03;;;23.96;58.41
25638;BME280;13496;51.040;13.680;2022-08-25T09:43:59;100028.41;;;23.95;57.00
25638;BME280;13496;51.040;13.680;2022-08-25T09:49:12;100020.81;;;23.98;56.50
25638;BME280;13496;51.040;13.680;2022-08-25T09:59:22;100012.34;;;24.14;57.76
25638;BME280;13496;51.040;13.680;2022-08-25T10:04:31;100003.06;;;24.24;57.92
25638;BME280;13496;51.040;13.680;2022-08-25T10:09:39;99994.97;;;24.19;56.87
25638;BME280;13496;51.040;13.680;2022-08-25T10:14:41;99978.00;;;24.20;56.50
25638;BME280;13496;51.040;13.680;2022-08-25T10:19:42;99978.63;;;24.22;57.25
25638;BME280;13496;51.040;13.680;2022-08-25T10:24:44;99960.59;;;24.49;57.87
25638;BME280;13496;51.040;13.680;2022-08-25T10:35:16;99955.50;;;24.47;56.89
25638;BME280;13496;51.040;13.680;2022-08-25T10:45:46;99944.00;;;24.53;56.52
25638;BME280;13496;51.040;13.680;2022-08-25T10:56:33;99930.44;;;24.61;56.25
25638;BME280;13496;51.040;13.680;2022-08-25T11:12:57;99908.94;;;24.51;55.58
25638;BME280;13496;51.040;13.680;2022-08-25T11:18:03;99911.50;;;24.58;55.32
25638;BME280;13496;51.040;13.680;2022-08-25T11:23:11;99909.50;;;24.72;55.49
25638;BME280;13496;51.040;13.680;2022-08-25T11:28:22;99909.44;;;24.90;55.23
25638;BME280;13496;51.040;13.680;2022-08-25T11:33:27;99901.16;;;24.98;55.27
25638;BME280;13496;51.040;13.680;2022-08-25T11:39:00;99884.63;;;24.84;55.01
25638;BME280;13496;51.040;13.680;2022-08-25T11:44:19;99891.94;;;25.01;54.76
25638;BME280;13496;51.040;13.680;2022-08-25T11:54:42;99882.81;;;24.97;54.44
25638;BME280;13496;51.040;13.680;2022-08-25T12:05:00;99880.16;;;25.08;54.26
25638;BME280;13496;51.040;13.680;2022-08-25T12:15:24;99864.63;;;25.12;54.15
25638;BME280;13496;51.040;13.680;2022-08-25T12:25:54;99848.34;;;25.32;53.70
25638;BME280;13496;51.040;13.680;2022-08-25T12:31:05;99847.44;;;25.26;53.77
25638;BME280;13496;51.040;13.680;2022-08-25T12:36:10;99849.81;;;25.04;53.71
25638;BME280;13496;51.040;13.680;2022-08-25T12:41:26;99839.22;;;25.28;53.52
25638;BME280;13496;51.040;13.680;2022-08-25T12:46:35;99838.44;;;25.16;53.26
25638;BME280;13496;51.040;13.680;2022-08-25T12:56:49;99832.78;;;25.59;53.29
25638;BME280;13496;51.040;13.680;2022-08-25T13:02:35;99824.66;;;25.66;52.72
25638;BME280;13496;51.040;13.680;2022-08-25T13:18:30;99804.34;;;25.83;52.38
25638;BME280;13496;51.040;13.680;2022-08-25T13:23:35;99799.69;;;25.90;52.06
25638;BME280;13496;51.040;13.680;2022-08-25T13:28:39;99793.91;;;25.93;52.14
25638;BME280;13496;51.040;13.680;2022-08-25T13:34:02;99786.63;;;26.00;52.18
25638;BME280;13496;51.040;13.680;2022-08-25T13:39:34;99776.53;;;26.02;51.95
25638;BME280;13496;51.040;13.680;2022-08-25T13:44:36;99779.31;;;26.08;51.40
25638;BME280;13496;51.040;13.680;2022-08-25T13:49:42;99776.31;;;26.04;51.20
25638;BME280;13496;51.040;13.680;2022-08-25T13:54:46;99763.06;;;25.69;51.68
25638;BME280;13496;51.040;13.680;2022-08-25T13:59:52;99769.66;;;25.78;51.25
25638;BME280;13496;51.040;13.680;2022-08-25T14:04:54;99768.59;;;25.91;51.33
25638;BME280;13496;51.040;13.680;2022-08-25T14:10:02;99768.28;;;26.16;50.53
25638;BME280;13496;51.040;13.680;2022-08-25T14:15:10;99762.91;;;26.27;50.40
25638;BME280;13496;51.040;13.680;2022-08-25T14:20:20;99759.63;;;26.37;50.59
25638;BME280;13496;51.040;13.680;2022-08-25T14:25:26;99753.50;;;26.37;50.64
25638;BME280;13496;51.040;13.680;2022-08-25T14:30:29;99756.97;;;26.37;51.10
25638;BME280;13496;51.040;13.680;2022-08-25T14:35:31;99747.13;;;26.38;50.56
25638;BME280;13496;51.040;13.680;2022-08-25T14:40:33;99742.53;;;26.33;50.80
25638;BME280;13496;51.040;13.680;2022-08-25T14:45:39;99733.91;;;26.43;50.49
25638;BME280;13496;51.040;13.680;2022-08-25T14:50:41;99725.91;;;26.43;50.53
25638;BME280;13496;51.040;13.680;2022-08-25T14:55:44;99723.31;;;26.14;50.56
25638;BME280;13496;51.040;13.680;2022-08-25T15:00:46;99725.25;;;26.19;50.80
25638;BME280;13496;51.040;13.680;2022-08-25T15:05:48;99721.25;;;26.33;50.52
25638;BME280;13496;51.040;13.680;2022-08-25T15:10:50;99711.91;;;26.47;50.66
25638;BME280;13496;51.040;13.680;2022-08-25T15:15:52;99718.88;;;26.48;50.51
25638;BME280;13496;51.040;13.680;2022-08-25T15:20:54;99719.94;;;26.19;50.70
25638;BME280;13496;51.040;13.680;2022-08-25T15:25:55;99718.66;;;26.38;50.64
25638;BME280;13496;51.040;13.680;2022-08-25T15:30:58;99712.78;;;26.36;50.64
25638;BME280;13496;51.040;13.680;2022-08-25T15:35:59;99721.06;;;26.40;50.48
25638;BME280;13496;51.040;13.680;2022-08-25T15:41:01;99716.47;;;26.35;50.89
25638;BME280;13496;51.040;13.680;2022-08-25T15:46:05;99715.16;;;26.21;50.97
25638;BME280;13496;51.040;13.680;2022-08-25T15:51:06;99701.19;;;26.42;50.81
25638;BME280;13496;51.040;13.680;2022-08-25T15:56:09;99695.84;;;26.42;50.89
25638;BME280;13496;51.040;13.680;2022-08-25T16:01:23;99701.19;;;26.25;50.83
25638;BME280;13496;51.040;13.680;2022-08-25T16:06:25;99689.34;;;26.33;50.86
25638;BME280;13496;51.040;13.680;2022-08-25T16:11:29;99690.53;;;26.42;51.27
25638;BME280;13496;51.040;13.680;2022-08-25T16:16:31;99679.03;;;26.53;51.02
25638;BME280;13496;51.040;13.680;2022-08-25T16:21:33;99676.91;;;26.39;50.73
25638;BME280;13496;51.040;13.680;2022-08-25T16:26:37;99679.25;;;26.35;50.95
25638;BME280;13496;51.040;13.680;2022-08-25T16:31:43;99685.47;;;26.58;51.22
25638;BME280;13496;51.040;13.680;2022-08-25T16:36:45;99687.09;;;26.59;51.50
25638;BME280;13496;51.040;13.680;2022-08-25T16:41:48;99685.88;;;26.49;51.30
25638;BME280;13496;51.040;13.680;2022-08-25T16:46:50;99676.75;;;26.62;51.42
25638;BME280;13496;51.040;13.680;2022-08-25T16:51:54;99688.78;;;26.65;51.99
25638;BME280;13496;51.040;13.680;2022-08-25T16:56:56;99680.97;;;26.58;51.29
25638;BME280;13496;51.040;13.680;2022-08-25T17:01:58;99678.97;;;26.48;51.17
25638;BME280;13496;51.040;13.680;2022-08-25T17:06:59;99684.63;;;26.23;51.87
25638;BME280;13496;51.040;13.680;2022-08-25T17:12:01;99696.56;;;26.21;51.86
25638;BME280;13496;51.040;13.680;2022-08-25T17:17:03;99689.69;;;26.25;51.86
25638;BME280;13496;51.040;13.680;2022-08-25T17:22:06;99691.63;;;26.13;51.98
25638;BME280;13496;51.040;13.680;2022-08-25T17:27:08;99694.69;;;26.21;51.78
25638;BME280;13496;51.040;13.680;2022-08-25T17:32:10;99696.63;;;26.09;52.23
25638;BME280;13496;51.040;13.680;2022-08-25T17:37:12;99700.06;;;26.10;52.23
25638;BME280;13496;51.040;13.680;2022-08-25T17:42:14;99719.75;;;26.09;52.02
25638;BME280;13496;51.040;13.680;2022-08-25T17:47:16;99717.56;;;26.05;52.25
25638;BME280;13496;51.040;13.680;2022-08-25T17:52:17;99732.28;;;25.96;52.42
25638;BME280;13496;51.040;13.680;2022-08-25T17:57:19;99730.72;;;25.83;52.77
25638;BME280;13496;51.040;13.680;2022-08-25T18:02:21;99732.09;;;25.86;52.47
25638;BME280;13496;51.040;13.680;2022-08-25T18:07:23;99736.50;;;25.80;52.65
25638;BME280;13496;51.040;13.680;2022-08-25T18:12:24;99731.50;;;25.84;52.63
25638;BME280;13496;51.040;13.680;2022-08-25T18:17:26;99734.50;;;25.76;52.96
25638;BME280;13496;51.040;13.680;2022-08-25T18:22:28;99739.84;;;25.76;52.90
25638;BME280;13496;51.040;13.680;2022-08-25T18:27:30;99752.22;;;25.70;52.98
25638;BME280;13496;51.040;13.680;2022-08-25T18:32:32;99747.13;;;25.69;53.26
25638;BME280;13496;51.040;13.680;2022-08-25T18:37:34;99757.28;;;25.72;53.29
25638;BME280;13496;51.040;13.680;2022-08-25T18:43:01;99756.25;;;25.73;53.04
25638;BME280;13496;51.040;13.680;2022-08-25T18:48:03;99753.25;;;25.69;53.63
25638;BME280;13496;51.040;13.680;2022-08-25T18:53:06;99753.97;;;25.65;53.51
25638;BME280;13496;51.040;13.680;2022-08-25T18:58:08;99758.72;;;25.63;53.67
25638;BME280;13496;51.040;13.680;2022-08-25T19:03:11;99753.63;;;25.61;53.85
25638;BME280;13496;51.040;13.680;2022-08-25T19:08:15;99752.22;;;25.58;53.87
25638;BME280;13496;51.040;13.680;2022-08-25T19:13:17;99751.78;;;25.62;53.83
25638;BME280;13496;51.040;13.680;2022-08-25T19:18:19;99755.94;;;25.57;53.81
25638;BME280;13496;51.040;13.680;2022-08-25T19:23:21;99749.13;;;25.50;53.76
25638;BME280;13496;51.040;13.680;2022-08-25T19:28:23;99752.72;;;25.44;53.75
25638;BME280;13496;51.040;13.680;2022-08-25T19:33:25;99758.63;;;25.46;53.71
25638;BME280;13496;51.040;13.680;2022-08-25T19:38:27;99757.47;;;25.42;53.82
25638;BME280;13496;51.040;13.680;2022-08-25T19:43:29;99758.03;;;25.44;53.44
25638;BME280;13496;51.040;13.680;2022-08-25T19:48:31;99757.13;;;25.38;53.60
25638;BME280;13496;51.040;13.680;2022-08-25T19:53:33;99749.41;;;25.37;53.47
25638;BME280;13496;51.040;13.680;2022-08-25T19:58:35;99755.97;;;25.34;53.55
25638;BME280;13496;51.040;13.680;2022-08-25T20:03:37;99755.28;;;25.27;53.82
25638;BME280;13496;51.040;13.680;2022-08-25T20:08:39;99747.22;;;25.22;54.14
25638;BME280;13496;51.040;13.680;2022-08-25T20:13:42;99752.53;;;25.22;54.39
25638;BME280;13496;51.040;13.680;2022-08-25T20:18:44;99748.50;;;25.19;54.58
25638;BME280;13496;51.040;13.680;2022-08-25T20:23:46;99748.94;;;25.16;54.77
25638;BME280;13496;51.040;13.680;2022-08-25T20:29:06;99749.75;;;25.17;54.76
25638;BME280;13496;51.040;13.680;2022-08-25T20:34:08;99741.69;;;25.12;54.94
25638;BME280;13496;51.040;13.680;2022-08-25T20:39:10;99753.09;;;25.12;54.88
25638;BME280;13496;51.040;13.680;2022-08-25T20:44:12;99749.75;;;25.17;55.54
25638;BME280;13496;51.040;13.680;2022-08-25T20:49:14;99749.41;;;25.13;55.26
25638;BME280;13496;51.040;13.680;2022-08-25T20:54:15;99742.09;;;25.08;55.18
25638;BME280;13496;51.040;13.680;2022-08-25T20:59:17;99744.66;;;25.03;55.54
25638;BME280;13496;51.040;13.680;2022-08-25T21:04:21;99740.72;;;25.06;55.46
25638;BME280;13496;51.040;13.680;2022-08-25T21:09:23;99738.50;;;25.03;55.59
25638;BME280;13496;51.040;13.680;2022-08-25T21:14:25;99748.31;;;25.02;55.53
25638;BME280;13496;51.040;13.680;2022-08-25T21:19:27;99730.00;;;25.01;55.52
25638;BME280;13496;51.040;13.680;2022-08-25T21:24:28;99740.50;;;24.96;55.69
25638;BME280;13496;51.040;13.680;2022-08-25T21:29:30;99740.16;;;24.92;55.71
25638;BME280;13496;51.040;13.680;2022-08-25T21:34:33;99741.31;;;24.96;55.59
25638;BME280;13496;51.040;13.680;2022-08-25T21:39:34;99733.81;;;24.93;55.95
25638;BME280;13496;51.040;13.680;2022-08-25T21:44:36;99725.84;;;24.93;55.86
25638;BME280;13496;51.040;13.680;2022-08-25T21:49:38;99736.91;;;24.90;55.65
25638;BME280;13496;51.040;13.680;2022-08-25T21:54:39;99728.84;;;24.85;56.11
25638;BME280;13496;51.040;13.680;2022-08-25T21:59:41;99726.19;;;24.85;56.22
25638;BME280;13496;51.040;13.680;2022-08-25T22:04:43;99723.03;;;24.88;55.75
25638;BME280;13496;51.040;13.680;2022-08-25T22:09:47;99717.75;;;24.88;55.60
25638;BME280;13496;51.040;13.680;2022-08-25T22:14:49;99722.84;;;24.90;56.55
25638;BME280;13496;51.040;13.680;2022-08-25T22:19:51;99720.38;;;24.88;55.98
25638;BME280;13496;51.040;13.680;2022-08-25T22:24:53;99709.22;;;24.86;56.14
25638;BME280;13496;51.040;13.680;2022-08-25T22:29:56;99713.13;;;24.83;56.11
25638;BME280;13496;51.040;13.680;2022-08-25T22:34:58;99705.84;;;24.79;56.13
25638;BME280;13496;51.040;13.680;2022-08-25T22:40:00;99696.19;;;24.84;56.08
25638;BME280;13496;51.040;13.680;2022-08-25T22:45:03;99694.44;;;24.78;56.09
25638;BME280;13496;51.040;13.680;2022-08-25T22:50:05;99687.19;;;24.74;56.10
25638;BME280;13496;51.040;13.680;2022-08-25T22:55:07;99685.09;;;24.76;55.87
25638;BME280;13496;51.040;13.680;2022-08-25T23:00:12;99680.59;;;24.76;56.00
25638;BME280;13496;51.040;13.680;2022-08-25T23:05:14;99681.63;;;24.75;56.20
25638;BME280;13496;51.040;13.680;2022-08-25T23:10:16;99682.31;;;24.71;56.42
25638;BME280;13496;51.040;13.680;2022-08-25T23:15:18;99669.88;;;24.71;56.24
25638;BME280;13496;51.040;13.680;2022-08-25T23:20:19;99668.94;;;24.77;56.12
25638;BME280;13496;51.040;13.680;2022-08-25T23:25:39;99666.50;;;24.76;56.14
25638;BME280;13496;51.040;13.680;2022-08-25T23:30:41;99655.56;;;24.72;56.12
25638;BME280;13496;51.040;13.680;2022-08-25T23:35:44;99655.78;;;24.71;56.06
25638;BME280;13496;51.040;13.680;2022-08-25T23:40:45;99647.50;;;24.67;56.00
25638;BME280;13496;51.040;13.680;2022-08-25T23:45:47;99643.44;;;24.65;55.99
25638;BME280;13496;51.040;13.680;2022-08-25T23:50:49;99649.78;;;24.63;56.22
25638;BME280;13496;51.040;13.680;2022-08-25T23:55:52;99655.91;;;24.64;55.94
